Terminal Aerodrome Forecast
Issued by NWS

Home | Current Version | Previous Version | Text Only | Print | Product List | Glossary On
Versions: 1 2 3 4 5 6 7 8 9 10 11 12 13 14 15 16 17 18 19 20 21 22 23 24 25 26 27 28 29
810
FTUS44 KFWD 261313 AAB
TAFGKY
TAF AMD
KGKY 261313Z 2613/2712 11006KT P6SM SCT022 BKN050
      TEMPO 2613/2615 BKN018
     FM261600 09009KT P6SM VCSH SCT025 BKN050
     FM261800 09009KT P6SM VCTS BKN040CB BKN150 BKN250
     FM262200 12007KT P6SM BKN050 BKN150=

USA.gov is the U.S. government's official web portal to all federal, state and local government web resources and services.